createdAt,value
2023-01-20T00:01:12.161Z,8.06
2023-01-20T00:03:40.992Z,8.06
2023-01-20T00:06:10.064Z,7.69
2023-01-20T00:08:39.089Z,7.53
2023-01-20T00:11:08.176Z,7.46
2023-01-20T00:13:38.294Z,7.34
2023-01-20T00:16:08.844Z,7.67
2023-01-20T00:18:37.430Z,7.72
2023-01-20T00:21:06.505Z,7.75
2023-01-20T00:23:34.999Z,7.91
2023-01-20T00:26:06.469Z,7.55
2023-01-20T00:28:35.329Z,7.63
2023-01-20T00:31:16.190Z,7.14
2023-01-20T00:33:45.139Z,7.07
2023-01-20T00:36:14.306Z,7.47
2023-01-20T00:38:42.615Z,7.44
2023-01-20T00:41:11.213Z,7.12
2023-01-20T00:43:39.612Z,7.04
2023-01-20T00:46:08.442Z,7.54
2023-01-20T00:48:38.469Z,7.61
2023-01-20T00:51:07.893Z,7.64
2023-01-20T00:53:36.735Z,7.35
2023-01-20T00:56:05.601Z,7.46
2023-01-20T00:58:34.084Z,7.35
2023-01-20T01:01:02.596Z,7.32
2023-01-20T01:03:31.425Z,7.38
2023-01-20T01:06:12.511Z,7.35
2023-01-20T01:08:41.071Z,7.42
2023-01-20T01:11:09.632Z,7.35
2023-01-20T01:13:38.519Z,7.04
2023-01-20T01:16:11.706Z,7.38
2023-01-20T01:18:40.217Z,7.25
2023-01-20T01:21:10.727Z,7.33
2023-01-20T01:23:39.257Z,7.19
2023-01-20T01:26:07.571Z,7.18
2023-01-20T01:28:35.888Z,7.05
2023-01-20T01:31:05.532Z,6.89
2023-01-20T01:33:34.425Z,7.22
2023-01-20T01:36:03.798Z,7.07
2023-01-20T01:38:33.712Z,7.16
2023-01-20T01:41:02.119Z,7.09
2023-01-20T01:43:32.703Z,7.09
2023-01-20T01:46:00.849Z,6.79
2023-01-20T01:48:31.022Z,6.75
2023-01-20T01:51:04.460Z,7.11
2023-01-20T01:53:39.905Z,6.81
2023-01-20T01:56:08.680Z,6.59
2023-01-20T01:58:38.783Z,6.95
2023-01-20T02:01:07.258Z,6.86
2023-01-20T02:03:41.526Z,6.54
2023-01-20T02:06:11.396Z,6.68
2023-01-20T02:08:41.282Z,6.82
2023-01-20T02:11:09.664Z,6.61
2023-01-20T02:13:37.987Z,6.37
2023-01-20T02:16:12.637Z,6.72
2023-01-20T02:18:50.231Z,6.54
2023-01-20T02:21:46.336Z,6.54
2023-01-20T02:24:31.740Z,5.83
2023-01-20T02:27:07.763Z,6.27
2023-01-20T02:30:12.689Z,6.56
2023-01-20T02:32:49.704Z,6.45
2023-01-20T02:35:23.750Z,6.68
2023-01-20T02:37:58.065Z,6.57
2023-01-20T02:40:32.905Z,6.59
2023-01-20T02:43:07.122Z,6.25
2023-01-20T02:45:40.850Z,6.25
2023-01-20T02:48:15.938Z,5.99
2023-01-20T02:50:48.174Z,6.16
2023-01-20T02:53:18.097Z,6.41
2023-01-20T02:55:48.890Z,6.64
2023-01-20T02:58:20.953Z,6.62
2023-01-20T03:00:52.101Z,6.62
2023-01-20T03:03:25.551Z,6.65
2023-01-20T03:05:56.214Z,6.56
2023-01-20T03:08:27.754Z,6.12
2023-01-20T03:10:59.321Z,6.14
2023-01-20T03:13:32.092Z,6.01
2023-01-20T03:16:03.357Z,5.74
2023-01-20T03:18:33.978Z,5.90
2023-01-20T03:21:02.784Z,6.16
2023-01-20T03:23:33.557Z,6.25
2023-01-20T03:26:02.240Z,5.70
2023-01-20T03:28:30.537Z,5.63
2023-01-20T03:30:59.616Z,5.48
2023-01-20T03:33:28.137Z,5.69
2023-01-20T03:35:57.935Z,5.77
2023-01-20T03:38:26.311Z,6.02
2023-01-20T03:41:00.323Z,6.04
2023-01-20T03:43:32.025Z,6.11
2023-01-20T03:46:04.363Z,5.95
2023-01-20T03:48:36.407Z,6.10
2023-01-20T03:51:11.576Z,5.48
2023-01-20T03:53:45.485Z,5.85
2023-01-20T03:56:18.186Z,5.32
2023-01-20T03:58:48.801Z,5.77
2023-01-20T04:01:18.432Z,5.55
2023-01-20T04:03:49.287Z,5.34
2023-01-20T04:06:20.940Z,5.25
2023-01-20T04:08:55.701Z,5.17
2023-01-20T04:11:26.146Z,5.67
2023-01-20T04:13:54.576Z,5.78
2023-01-20T04:16:23.482Z,5.91
2023-01-20T04:18:52.571Z,5.93
2023-01-20T04:21:25.609Z,5.72
2023-01-20T04:23:57.244Z,5.46
2023-01-20T04:26:25.520Z,5.34
2023-01-20T04:28:53.841Z,5.32
2023-01-20T04:31:30.684Z,5.35
2023-01-20T04:33:59.558Z,5.26
2023-01-20T04:36:29.381Z,4.88
2023-01-20T04:38:57.971Z,4.92
2023-01-20T04:41:26.327Z,4.87
2023-01-20T04:43:54.650Z,4.74
2023-01-20T04:46:23.466Z,4.60
2023-01-20T04:48:51.797Z,4.31
2023-01-20T04:51:20.453Z,4.31
2023-01-20T04:53:50.121Z,4.19
2023-01-20T04:56:18.558Z,4.46
2023-01-20T04:58:49.071Z,4.72
2023-01-20T05:01:17.272Z,4.79
2023-01-20T05:03:45.782Z,4.88
2023-01-20T05:06:14.377Z,4.32
2023-01-20T05:08:42.710Z,5.01
2023-01-20T05:11:12.457Z,5.28
2023-01-20T05:13:40.750Z,5.51
2023-01-20T05:16:09.968Z,5.41
2023-01-20T05:18:38.644Z,5.50
2023-01-20T05:21:08.810Z,5.55
2023-01-20T05:23:37.192Z,5.51
2023-01-20T05:26:05.777Z,5.37
2023-01-20T05:28:35.451Z,5.22
2023-01-20T05:31:03.941Z,5.38
2023-01-20T05:33:32.406Z,5.40
2023-01-20T05:36:00.751Z,5.17
2023-01-20T05:38:29.047Z,5.35
2023-01-20T05:41:00.917Z,5.44
2023-01-20T05:43:29.276Z,5.47
2023-01-20T05:45:59.131Z,5.43
2023-01-20T05:48:27.687Z,5.62
2023-01-20T05:50:56.133Z,5.38
2023-01-20T05:53:24.562Z,5.55
2023-01-20T05:56:00.253Z,5.66
2023-01-20T05:58:28.952Z,5.77
2023-01-20T06:01:05.331Z,5.63
2023-01-20T06:03:33.774Z,5.32
2023-01-20T06:06:02.191Z,4.57
2023-01-20T06:08:30.562Z,5.21
2023-01-20T06:10:59.126Z,5.56
2023-01-20T06:13:27.618Z,4.83
2023-01-20T06:15:58.092Z,5.04
2023-01-20T06:18:26.223Z,5.05
2023-01-20T06:20:58.073Z,5.17
2023-01-20T06:23:26.539Z,5.35
2023-01-20T06:26:00.242Z,5.16
2023-01-20T06:28:28.830Z,5.34
2023-01-20T06:31:02.736Z,5.51
2023-01-20T06:33:31.496Z,5.88
2023-01-20T06:35:59.880Z,6.03
2023-01-20T06:38:31.035Z,6.13
2023-01-20T06:41:00.103Z,6.11
2023-01-20T06:43:30.082Z,6.10
2023-01-20T06:46:03.334Z,5.55
2023-01-20T06:48:32.137Z,5.47
2023-01-20T06:51:04.205Z,5.81
2023-01-20T06:53:32.752Z,6.10
2023-01-20T06:56:02.021Z,6.20
2023-01-20T06:58:31.604Z,5.96
2023-01-20T07:01:07.252Z,5.87
2023-01-20T07:03:35.695Z,5.75
2023-01-20T07:06:05.310Z,5.56
2023-01-20T07:08:33.583Z,5.46
2023-01-20T07:11:01.843Z,5.37
2023-01-20T07:13:30.089Z,5.51
2023-01-20T07:15:58.391Z,5.60
2023-01-20T07:18:27.984Z,4.81
2023-01-20T07:20:56.739Z,5.21
2023-01-20T07:23:25.553Z,4.68
2023-01-20T07:26:00.080Z,5.35
2023-01-20T07:28:28.526Z,5.04
2023-01-20T07:30:56.957Z,5.52
2023-01-20T07:33:25.327Z,5.54
2023-01-20T07:35:55.164Z,5.73
2023-01-20T07:38:23.469Z,5.70
2023-01-20T07:40:51.863Z,5.62
2023-01-20T07:43:20.278Z,5.53
2023-01-20T07:45:48.598Z,5.81
2023-01-20T07:48:16.870Z,5.50
2023-01-20T07:50:47.880Z,5.85
2023-01-20T07:53:17.509Z,5.44
2023-01-20T07:55:45.780Z,5.12
2023-01-20T07:58:14.053Z,4.89
2023-01-20T08:00:42.310Z,4.99
2023-01-20T08:03:10.624Z,5.08
2023-01-20T08:05:39.166Z,4.92
2023-01-20T08:08:07.468Z,4.98
2023-01-20T08:10:37.228Z,4.50
2023-01-20T08:13:05.886Z,4.88
2023-01-20T08:15:34.164Z,4.89
2023-01-20T08:18:02.487Z,5.17
2023-01-20T08:20:30.727Z,4.89
2023-01-20T08:22:58.992Z,4.93
2023-01-20T08:25:27.243Z,4.97
2023-01-20T08:27:56.919Z,4.96
2023-01-20T08:30:25.247Z,5.13
2023-01-20T08:32:53.608Z,4.44
2023-01-20T08:35:21.911Z,4.88
2023-01-20T08:37:50.208Z,5.02
2023-01-20T08:40:18.685Z,5.21
2023-01-20T08:42:47.219Z,5.16
2023-01-20T08:45:17.338Z,5.13
2023-01-20T08:47:46.215Z,5.76
2023-01-20T08:50:15.814Z,6.02
2023-01-20T08:52:44.131Z,5.37
2023-01-20T08:55:13.536Z,5.71
2023-01-20T08:57:41.964Z,5.73
2023-01-20T09:00:11.704Z,6.53
2023-01-20T09:02:42.024Z,5.02
2023-01-20T09:05:11.172Z,5.48
2023-01-20T09:07:39.438Z,5.73
2023-01-20T09:10:08.764Z,5.86
2023-01-20T09:12:37.657Z,6.46
2023-01-20T09:15:07.629Z,5.96
2023-01-20T09:17:36.122Z,5.98
2023-01-20T09:20:06.646Z,5.81
2023-01-20T09:22:35.021Z,5.75
2023-01-20T09:25:03.477Z,6.30
2023-01-20T09:27:31.771Z,6.15
2023-01-20T09:30:00.132Z,5.58
2023-01-20T09:32:28.435Z,5.61
2023-01-20T09:34:57.031Z,5.98
2023-01-20T09:37:44.254Z,5.24
2023-01-20T09:40:32.289Z,5.51
2023-01-20T09:43:24.848Z,5.57
2023-01-20T09:45:56.324Z,5.51
2023-01-20T09:48:49.842Z,5.06
2023-01-20T09:51:39.460Z,5.24
2023-01-20T09:54:15.694Z,5.22
2023-01-20T09:56:48.437Z,5.86
2023-01-20T09:59:21.917Z,5.63
2023-01-20T10:01:52.793Z,5.37
2023-01-20T10:04:25.960Z,5.55
2023-01-20T10:06:56.460Z,5.11
2023-01-20T10:09:32.761Z,5.61
2023-01-20T10:12:08.631Z,5.82
2023-01-20T10:14:39.648Z,5.14
2023-01-20T10:17:11.407Z,5.09
2023-01-20T10:19:44.816Z,5.20
2023-01-20T10:22:17.118Z,5.62
2023-01-20T10:24:55.516Z,5.50
2023-01-20T10:27:25.682Z,6.13
2023-01-20T10:29:56.466Z,5.77
2023-01-20T10:32:32.200Z,6.28
2023-01-20T10:35:04.148Z,6.12
2023-01-20T10:37:32.909Z,5.86
2023-01-20T10:40:08.674Z,5.72
2023-01-20T10:42:36.945Z,5.80
2023-01-20T10:45:09.769Z,6.07
2023-01-20T10:47:45.208Z,6.56
2023-01-20T10:50:33.590Z,6.10
2023-01-20T10:53:36.659Z,6.26
2023-01-20T10:56:17.769Z,6.33
2023-01-20T10:58:47.655Z,6.04
2023-01-20T11:01:18.977Z,6.68
2023-01-20T11:03:49.713Z,6.20
2023-01-20T11:06:19.563Z,6.18
2023-01-20T11:08:47.787Z,6.45
2023-01-20T11:11:20.032Z,5.89
2023-01-20T11:13:48.550Z,6.09
2023-01-20T11:16:20.059Z,5.76
2023-01-20T11:18:57.030Z,5.68
2023-01-20T11:21:26.627Z,5.48
2023-01-20T11:23:56.830Z,5.67
2023-01-20T11:26:28.677Z,5.42
2023-01-20T11:28:58.892Z,5.41
2023-01-20T11:31:41.564Z,5.83
2023-01-20T11:34:22.636Z,5.63
2023-01-20T11:36:51.293Z,5.20
2023-01-20T11:39:30.590Z,5.17
2023-01-20T11:42:16.916Z,5.22
2023-01-20T11:44:45.540Z,5.26
2023-01-20T11:47:24.821Z,5.72
2023-01-20T11:50:27.693Z,5.34
2023-01-20T11:53:13.342Z,5.56
2023-01-20T11:55:50.315Z,5.62
2023-01-20T11:58:23.169Z,5.84
2023-01-20T12:00:53.362Z,5.71
2023-01-20T12:03:49.996Z,5.68
2023-01-20T12:06:20.475Z,5.43
2023-01-20T12:08:51.405Z,5.96
2023-01-20T12:11:24.730Z,5.64
2023-01-20T12:14:23.210Z,5.40
2023-01-20T12:17:07.666Z,6.14
2023-01-20T12:19:42.093Z,6.28
2023-01-20T12:22:13.515Z,6.56
2023-01-20T12:25:01.829Z,6.68
2023-01-20T12:27:30.169Z,5.76
2023-01-20T12:30:03.427Z,6.14
2023-01-20T12:32:33.301Z,6.34
2023-01-20T12:35:01.697Z,6.10
2023-01-20T12:37:34.782Z,6.20
2023-01-20T12:40:14.432Z,6.50
2023-01-20T12:43:11.198Z,6.08
2023-01-20T12:45:56.977Z,6.27
2023-01-20T12:48:33.223Z,5.64
2023-01-20T12:51:15.897Z,5.80
2023-01-20T12:53:56.725Z,5.82
2023-01-20T12:56:31.385Z,5.62
2023-01-20T12:59:06.011Z,5.80
2023-01-20T13:01:47.167Z,5.63
2023-01-20T13:04:54.017Z,5.98
2023-01-20T13:07:42.523Z,6.06
2023-01-20T13:10:18.760Z,5.91
2023-01-20T13:12:53.886Z,5.80
2023-01-20T13:15:26.363Z,6.23
2023-01-20T13:18:15.054Z,5.75
2023-01-20T13:20:45.596Z,5.65
2023-01-20T13:23:16.010Z,5.77
2023-01-20T13:25:46.329Z,5.60
2023-01-20T13:28:18.737Z,5.18
2023-01-20T13:30:51.067Z,5.82
2023-01-20T13:33:32.199Z,5.83
2023-01-20T13:36:01.606Z,6.06
2023-01-20T13:38:33.276Z,6.24
2023-01-20T13:41:06.055Z,5.79
2023-01-20T13:43:54.030Z,6.25
2023-01-20T13:46:48.163Z,5.82
2023-01-20T13:49:25.873Z,5.79
2023-01-20T13:51:54.218Z,5.55
2023-01-20T13:54:48.254Z,5.70
2023-01-20T13:57:46.430Z,6.16
2023-01-20T14:00:16.954Z,5.58
2023-01-20T14:02:45.922Z,5.96
2023-01-20T14:05:31.033Z,6.25
2023-01-20T14:07:59.860Z,6.84
2023-01-20T14:10:28.954Z,6.30
2023-01-20T14:12:57.270Z,6.29
2023-01-20T14:15:33.163Z,6.07
2023-01-20T14:18:01.892Z,6.19
2023-01-20T14:20:31.821Z,6.07
2023-01-20T14:23:26.156Z,6.29
2023-01-20T14:26:10.046Z,6.73
2023-01-20T14:28:49.529Z,5.99
2023-01-20T14:31:23.371Z,6.00
2023-01-20T14:33:57.441Z,6.17
2023-01-20T14:36:28.479Z,5.94
2023-01-20T14:38:58.766Z,6.02
2023-01-20T14:41:33.124Z,6.54
2023-01-20T14:44:02.565Z,6.75
2023-01-20T14:46:32.852Z,6.09
2023-01-20T14:49:01.742Z,6.71
2023-01-20T14:51:31.667Z,6.25
2023-01-20T14:54:28.270Z,6.34
2023-01-20T14:56:56.863Z,6.11
2023-01-20T14:59:25.239Z,6.57
2023-01-20T15:01:54.981Z,6.28
2023-01-20T15:04:23.629Z,6.72
2023-01-20T15:06:55.292Z,6.22
2023-01-20T15:09:28.843Z,6.65
2023-01-20T15:12:32.421Z,6.29
2023-01-20T15:15:21.936Z,6.96
2023-01-20T15:18:16.528Z,6.56
2023-01-20T15:20:47.076Z,6.62
2023-01-20T15:23:17.758Z,6.50
2023-01-20T15:25:46.016Z,6.62
2023-01-20T15:28:25.917Z,6.61
2023-01-20T15:30:55.029Z,6.48
2023-01-20T15:33:24.058Z,6.26
2023-01-20T15:35:54.611Z,6.69
2023-01-20T15:38:24.153Z,6.81
2023-01-20T15:40:52.363Z,6.72
2023-01-20T15:43:20.992Z,7.02
2023-01-20T15:45:49.547Z,6.86
2023-01-20T15:48:20.953Z,6.93
2023-01-20T15:50:49.826Z,7.02
2023-01-20T15:53:18.189Z,6.51
2023-01-20T15:55:52.374Z,6.22
2023-01-20T15:58:26.488Z,6.10
2023-01-20T16:00:56.096Z,5.99
2023-01-20T16:03:26.036Z,6.22
2023-01-20T16:05:55.981Z,6.23
2023-01-20T16:08:26.018Z,6.01
2023-01-20T16:10:55.653Z,6.08
2023-01-20T16:13:23.947Z,5.87
2023-01-20T16:15:52.294Z,6.13
2023-01-20T16:18:21.134Z,6.03
2023-01-20T16:20:50.750Z,6.33
2023-01-20T16:23:19.309Z,6.29
2023-01-20T16:25:47.699Z,6.41
2023-01-20T16:28:21.396Z,6.10
2023-01-20T16:30:50.206Z,6.01
2023-01-20T16:33:20.367Z,5.91
2023-01-20T16:35:49.246Z,6.21
2023-01-20T16:38:18.902Z,6.23
2023-01-20T16:40:51.674Z,6.08
2023-01-20T16:43:22.308Z,5.97
2023-01-20T16:45:55.319Z,6.23
2023-01-20T16:48:24.709Z,6.37
2023-01-20T16:50:53.711Z,6.29
2023-01-20T16:53:22.200Z,6.33
2023-01-20T16:55:50.629Z,6.25
2023-01-20T16:58:19.027Z,6.37
2023-01-20T17:00:48.951Z,6.36
2023-01-20T17:03:17.449Z,6.31
2023-01-20T17:05:45.712Z,6.20
2023-01-20T17:08:13.994Z,6.25
2023-01-20T17:10:48.404Z,6.13
2023-01-20T17:13:16.733Z,6.31
2023-01-20T17:15:45.020Z,6.21
2023-01-20T17:18:14.652Z,6.02
2023-01-20T17:20:42.949Z,5.99
2023-01-20T17:23:11.313Z,6.17
2023-01-20T17:25:39.562Z,6.10
2023-01-20T17:28:07.935Z,6.12
2023-01-20T17:30:36.243Z,6.22
2023-01-20T17:33:04.672Z,6.24
2023-01-20T17:35:34.429Z,6.06
2023-01-20T17:38:02.983Z,6.26
2023-01-20T17:40:31.413Z,6.57
2023-01-20T17:42:59.715Z,6.19
2023-01-20T17:45:29.372Z,6.25
2023-01-20T17:47:57.659Z,6.16
2023-01-20T17:50:26.027Z,6.10
2023-01-20T17:52:55.676Z,5.85
2023-01-20T17:55:23.949Z,6.46
2023-01-20T17:57:52.327Z,6.09
2023-01-20T18:00:21.233Z,6.13
2023-01-20T18:02:50.090Z,6.15
2023-01-20T18:05:18.359Z,6.46
2023-01-20T18:07:46.578Z,5.91
2023-01-20T18:10:16.943Z,6.56
2023-01-20T18:12:45.524Z,6.28
2023-01-20T18:15:13.834Z,5.85
2023-01-20T18:17:43.477Z,6.04
2023-01-20T18:20:14.858Z,6.16
2023-01-20T18:22:48.325Z,5.91
2023-01-20T18:25:18.255Z,6.35
2023-01-20T18:27:46.650Z,6.22
2023-01-20T18:30:15.891Z,5.58
2023-01-20T18:32:44.349Z,6.09
2023-01-20T18:35:12.608Z,5.97
2023-01-20T18:37:40.900Z,5.88
2023-01-20T18:40:11.406Z,6.22
2023-01-20T18:42:44.853Z,6.01
2023-01-20T18:45:13.183Z,5.92
2023-01-20T18:47:41.480Z,5.80
2023-01-20T18:50:11.023Z,6.02
2023-01-20T18:52:39.375Z,5.61
2023-01-20T18:55:09.124Z,6.03
2023-01-20T18:57:37.443Z,6.04
2023-01-20T19:00:08.788Z,5.89
2023-01-20T19:02:37.088Z,5.74
2023-01-20T19:05:05.940Z,5.99
2023-01-20T19:07:34.247Z,5.84
2023-01-20T19:10:02.580Z,5.71
2023-01-20T19:12:30.840Z,6.24
2023-01-20T19:14:59.179Z,5.88
2023-01-20T19:17:30.664Z,5.67
2023-01-20T19:19:58.995Z,6.11
2023-01-20T19:22:27.335Z,6.17
2023-01-20T19:24:55.634Z,6.08
2023-01-20T19:27:26.384Z,6.05
2023-01-20T19:29:54.716Z,5.58
2023-01-20T19:32:22.976Z,5.99
2023-01-20T19:34:52.677Z,5.94
2023-01-20T19:37:21.074Z,6.06
2023-01-20T19:39:50.312Z,5.87
2023-01-20T19:42:18.610Z,6.05
2023-01-20T19:44:46.913Z,5.70
2023-01-20T19:47:15.195Z,5.70
2023-01-20T19:49:43.535Z,5.76
2023-01-20T19:52:13.311Z,6.16
2023-01-20T19:54:41.600Z,6.32
2023-01-20T19:57:09.921Z,6.03
2023-01-20T19:59:40.778Z,5.86
2023-01-20T20:02:10.242Z,5.87
2023-01-20T20:04:38.529Z,6.19
2023-01-20T20:07:06.756Z,5.92
2023-01-20T20:09:37.755Z,6.15
2023-01-20T20:12:07.848Z,6.23
2023-01-20T20:14:36.181Z,6.01
2023-01-20T20:17:04.541Z,6.16
2023-01-20T20:19:32.921Z,6.31
2023-01-20T20:22:01.164Z,5.87
2023-01-20T20:24:29.584Z,6.25
2023-01-20T20:26:59.437Z,6.40
2023-01-20T20:29:28.019Z,6.16
2023-01-20T20:31:56.299Z,6.00
2023-01-20T20:34:24.606Z,6.08
2023-01-20T20:36:52.908Z,5.48
2023-01-20T20:39:21.173Z,6.16
2023-01-20T20:41:49.541Z,5.63
2023-01-20T20:44:19.402Z,5.53
2023-01-20T20:46:48.616Z,5.43
2023-01-20T20:49:17.322Z,5.37
2023-01-20T20:51:46.142Z,4.95
2023-01-20T20:54:17.005Z,5.72
2023-01-20T20:56:45.581Z,5.35
2023-01-20T20:59:13.961Z,5.28
2023-01-20T21:01:43.796Z,4.85
2023-01-20T21:04:12.236Z,5.17
2023-01-20T21:06:40.577Z,5.18
2023-01-20T21:09:09.267Z,4.91
2023-01-20T21:11:38.586Z,5.22
2023-01-20T21:14:07.515Z,5.08
2023-01-20T21:16:38.470Z,5.08
2023-01-20T21:19:09.143Z,5.38
2023-01-20T21:21:37.429Z,5.25
2023-01-20T21:24:13.899Z,5.56
2023-01-20T21:26:43.095Z,5.74
2023-01-20T21:29:11.995Z,5.75
2023-01-20T21:31:40.434Z,5.69
2023-01-20T21:34:14.343Z,5.53
2023-01-20T21:36:42.966Z,5.36
2023-01-20T21:39:12.858Z,5.66
2023-01-20T21:41:41.231Z,6.18
2023-01-20T21:44:28.315Z,6.13
2023-01-20T21:46:57.385Z,6.10
2023-01-20T21:49:44.784Z,5.98
2023-01-20T21:52:31.299Z,5.70
2023-01-20T21:54:59.647Z,5.46
2023-01-20T21:57:29.057Z,5.53
2023-01-20T21:59:57.482Z,5.64
2023-01-20T22:02:26.922Z,5.70
2023-01-20T22:04:56.802Z,5.44
2023-01-20T22:07:25.299Z,5.38
2023-01-20T22:09:53.566Z,5.44
2023-01-20T22:12:21.903Z,5.32
2023-01-20T22:14:50.260Z,5.10
2023-01-20T22:17:19.042Z,5.06
2023-01-20T22:19:47.337Z,5.24
2023-01-20T22:22:17.039Z,5.01
2023-01-20T22:24:45.333Z,5.00
2023-01-20T22:27:13.610Z,4.87
2023-01-20T22:29:41.909Z,5.35
2023-01-20T22:32:10.181Z,5.56
2023-01-20T22:34:38.418Z,5.42
2023-01-20T22:37:06.712Z,5.62
2023-01-20T22:39:36.320Z,5.51
2023-01-20T22:42:04.639Z,5.31
2023-01-20T22:44:32.901Z,5.18
2023-01-20T22:47:01.208Z,4.89
2023-01-20T22:49:29.899Z,5.30
2023-01-20T22:51:58.199Z,5.38
2023-01-20T22:54:26.533Z,5.11
2023-01-20T22:56:56.172Z,5.13
2023-01-20T22:59:24.416Z,4.79
2023-01-20T23:01:52.708Z,5.11
2023-01-20T23:04:21.000Z,5.20
2023-01-20T23:06:49.276Z,5.17
2023-01-20T23:09:17.530Z,5.38
2023-01-20T23:11:45.912Z,5.35
2023-01-20T23:14:15.606Z,5.10
2023-01-20T23:16:44.311Z,5.53
2023-01-20T23:19:12.719Z,5.50
2023-01-20T23:21:40.982Z,5.68
2023-01-20T23:24:09.582Z,5.66
2023-01-20T23:26:37.826Z,5.55
2023-01-20T23:29:06.126Z,5.37
2023-01-20T23:31:35.820Z,5.68
2023-01-20T23:34:04.288Z,5.58
2023-01-20T23:36:32.582Z,5.24
2023-01-20T23:39:01.100Z,5.74
2023-01-20T23:41:29.380Z,5.65
2023-01-20T23:43:57.656Z,5.55
2023-01-20T23:46:25.963Z,5.62
2023-01-20T23:48:55.749Z,5.57
2023-01-20T23:51:24.026Z,5.66
2023-01-20T23:53:52.293Z,5.26
2023-01-20T23:56:22.175Z,5.78
2023-01-20T23:58:51.012Z,5.42
